Blytheville, AR (72316)

8:11 PM CDT on August 22, 2014 (GMT -0500)
Blytheville Municipal | Change Station
CLOSE
Current Station
Airport
Location: Blytheville Muni Airport,
Elevation: 256 ft
Nearby Weather Stations

Elev 256 ft 35.94 °N, 89.83 °W | Updated 18 minutes ago

Clear
Clear
84 °F
Feels Like 96 °F
N
6
Wind Variable Wind from SSW

Today
High -- | Low -- °F
--% Chance of Precip.
Yesterday
High -- | Low -- °F
Precip. -- in
6:23 AM 7:40 PM
Waning Crescent, 6% visible
Pressure 29.95 in
Visibility 10.0 miles
Clouds Clear
Heat Index 96 °F
Dew Point 79 °F
Humidity 85%
Rainfall 0.00 in
Snow Depth Not available.
UV 0 out of 12
Pollen 9.50 out of 12
Air Quality Not available.
Flu Activity Not available.
METAR KHKA 230053Z AUTO 20005KT 10SM CLR 29/26 A2995 RMK AO2 SLP140 T02890261

More Conditions Fewer Conditions

Pressure 29.95 in
Visibility 10.0 miles
Clouds Clear
Heat Index 96 °F
Dew Point 79 °F
Humidity 85%
Rainfall 0.00 in
Snow Depth Not available.
UV 0 out of 12
Pollen 9.50 out of 12
Air Quality Not available.
Flu Activity Not available.
METAR KHKA 230053Z AUTO 20005KT 10SM CLR 29/26 A2995 RMK AO2 SLP140 T02890261

More Conditions Fewer Conditions

10-Day Weather Forecast

Almanac

Astronomy

Aug. 22, 2014 Rise Set
Actual Time 6:23 AM CDT 7:40 PM CDT
Civil Twilight 5:57 AM CDT 8:07 PM CDT
Nautical Twilight 5:25 AM CDT 8:39 PM CDT
Astronomical Twilight 4:51 AM CDT 9:12 PM CDT
Moon 3:48 AM CDT (8/22) 5:47 PM CDT (8/22)
Length of Visible Light 14h 10m
Length of Day
13h 16m
Tomorrow will be 2m 4s shorter.
Waning Crescent, 6% of the Moon is Illuminated
Today
Waning Crescent
Aug 25
New
Sep 2
First Quarter
Sep 8
Full
Sep 15
Last Quarter

Today's Extremes

State Highs State Lows

Community

WunderPhotos

Upload Photos

1,746,337 photos uploaded!

WunderBlogs® & News

Nearby

Snow Depth

Station Depth Elevation
No new snow has been reported.

Earthquake Activity

City Distance Mag. Time & Date
No recent earthquake activity has been reported nearby.
Minimum magnitude displayed is 2.5.

Coastal Water Temperatures

Place Temperature
No Stations Reporting

Nearby Weather Stations